エカテリンブルク の空港の天気 - METARとTAF

コルツォヴォ空港 ( USSS / SVX ) - ロシア エカテリンブルク
飛行場実況気象(Metar)
観測時間01/21 22:30 YEKT (01/21 17:30 UTC)
風向・風速東南東 5m/s
視程10km以上
天気現象弱い雪
全天の8割程度の雲 雲底高度 760m
気温-20℃
湿度64%
気圧1042hPa
METARUSSS 211730Z 12005MPS 9999 -SN BKN025 M20/M25 Q1042 R08L/490139 NOSIG RMK QFE761/1014
過去の天気等 Google飛行場航空写真 Wunderground天気予報

過去48時間のMETAR

飛行場予報(TAF)
発表時間: 1/21 21:51 YEKT (1/21 16:51 UTC)
予報対象時間: 21日23時 YEKT ~ 22日23時 YEKT
風向・風速東 6m/s
視程5,000m
天気現象弱い雪
全天の8割程度の雲 雲底高度 460m
21日23時 YEKT ~ 22日11時 YEKT に一時的に
風向・風速東南東 12m/s
視程2,100m
天気現象弱い雪 高い地吹雪
全天の8割程度の雲 雲底高度 210m
TAF USSS 211651Z 2118/2218 10006MPS 5000 -SN BKN015
TEMPO 2118/2206 12012MPS 2100 -SN BLSN BKN007